sensor_id;sensor_type;location;lat;lon;timestamp;P1;durP1;ratioP1;P2;durP2;ratioP2
68300;SDS011;55146;47.468;18.806;2023-07-20T00:02:12;9.53;;;4.47;;
68300;SDS011;55146;47.468;18.806;2023-07-20T00:04:38;8.43;;;4.23;;
68300;SDS011;55146;47.468;18.806;2023-07-20T00:07:03;8.07;;;4.15;;
68300;SDS011;55146;47.468;18.806;2023-07-20T00:09:29;9.33;;;4.30;;
68300;SDS011;55146;47.468;18.806;2023-07-20T00:11:54;9.47;;;4.57;;
68300;SDS011;55146;47.468;18.806;2023-07-20T00:14:20;9.63;;;4.93;;
68300;SDS011;55146;47.468;18.806;2023-07-20T00:16:46;8.50;;;4.53;;
68300;SDS011;55146;47.468;18.806;2023-07-20T00:19:12;10.40;;;4.25;;
68300;SDS011;55146;47.468;18.806;2023-07-20T00:21:37;10.07;;;4.75;;
68300;SDS011;55146;47.468;18.806;2023-07-20T00:24:05;7.90;;;4.10;;
68300;SDS011;55146;47.468;18.806;2023-07-20T00:26:31;8.13;;;4.53;;
68300;SDS011;55146;47.468;18.806;2023-07-20T00:28:56;8.18;;;4.90;;
68300;SDS011;55146;47.468;18.806;2023-07-20T00:31:22;9.07;;;4.40;;
68300;SDS011;55146;47.468;18.806;2023-07-20T00:33:47;11.20;;;4.53;;
68300;SDS011;55146;47.468;18.806;2023-07-20T00:36:13;11.75;;;5.57;;
68300;SDS011;55146;47.468;18.806;2023-07-20T00:38:39;8.67;;;4.63;;
68300;SDS011;55146;47.468;18.806;2023-07-20T00:41:05;8.73;;;4.37;;
68300;SDS011;55146;47.468;18.806;2023-07-20T00:43:31;9.27;;;4.50;;
68300;SDS011;55146;47.468;18.806;2023-07-20T00:45:56;8.70;;;4.47;;
68300;SDS011;55146;47.468;18.806;2023-07-20T00:48:22;13.47;;;4.30;;
68300;SDS011;55146;47.468;18.806;2023-07-20T00:50:47;7.37;;;4.37;;
68300;SDS011;55146;47.468;18.806;2023-07-20T00:53:13;8.25;;;4.50;;
68300;SDS011;55146;47.468;18.806;2023-07-20T00:55:39;8.48;;;4.47;;
68300;SDS011;55146;47.468;18.806;2023-07-20T00:58:04;8.60;;;4.80;;
68300;SDS011;55146;47.468;18.806;2023-07-20T01:00:30;7.80;;;4.33;;
68300;SDS011;55146;47.468;18.806;2023-07-20T01:02:55;8.97;;;4.73;;
68300;SDS011;55146;47.468;18.806;2023-07-20T01:05:21;6.68;;;4.43;;
68300;SDS011;55146;47.468;18.806;2023-07-20T01:08:07;9.97;;;5.33;;
68300;SDS011;55146;47.468;18.806;2023-07-20T01:10:57;8.10;;;4.45;;
68300;SDS011;55146;47.468;18.806;2023-07-20T01:13:29;9.27;;;4.07;;
68300;SDS011;55146;47.468;18.806;2023-07-20T01:15:57;7.73;;;4.20;;
68300;SDS011;55146;47.468;18.806;2023-07-20T01:18:26;7.07;;;4.20;;
68300;SDS011;55146;47.468;18.806;2023-07-20T01:20:51;9.13;;;4.13;;
68300;SDS011;55146;47.468;18.806;2023-07-20T01:26:27;11.40;;;4.78;;
68300;SDS011;55146;47.468;18.806;2023-07-20T01:29:15;9.50;;;5.32;;
68300;SDS011;55146;47.468;18.806;2023-07-20T01:31:52;9.40;;;4.57;;
68300;SDS011;55146;47.468;18.806;2023-07-20T01:34:20;9.40;;;5.10;;
68300;SDS011;55146;47.468;18.806;2023-07-20T01:36:48;9.90;;;5.77;;
68300;SDS011;55146;47.468;18.806;2023-07-20T01:39:15;8.38;;;4.25;;
68300;SDS011;55146;47.468;18.806;2023-07-20T01:41:42;10.80;;;4.25;;
68300;SDS011;55146;47.468;18.806;2023-07-20T01:44:08;7.28;;;4.37;;
68300;SDS011;55146;47.468;18.806;2023-07-20T01:46:33;10.13;;;4.60;;
68300;SDS011;55146;47.468;18.806;2023-07-20T01:48:58;8.67;;;4.97;;
68300;SDS011;55146;47.468;18.806;2023-07-20T01:51:24;6.87;;;4.25;;
68300;SDS011;55146;47.468;18.806;2023-07-20T01:53:49;11.20;;;4.80;;
68300;SDS011;55146;47.468;18.806;2023-07-20T01:56:15;10.20;;;5.10;;
68300;SDS011;55146;47.468;18.806;2023-07-20T01:58:40;8.30;;;3.97;;
68300;SDS011;55146;47.468;18.806;2023-07-20T02:01:05;8.53;;;4.77;;
68300;SDS011;55146;47.468;18.806;2023-07-20T02:03:31;9.57;;;4.12;;
68300;SDS011;55146;47.468;18.806;2023-07-20T02:05:57;10.87;;;4.40;;
68300;SDS011;55146;47.468;18.806;2023-07-20T02:08:22;8.40;;;4.67;;
68300;SDS011;55146;47.468;18.806;2023-07-20T02:10:48;9.27;;;5.15;;
68300;SDS011;55146;47.468;18.806;2023-07-20T02:13:14;12.93;;;5.32;;
68300;SDS011;55146;47.468;18.806;2023-07-20T02:15:39;8.47;;;4.60;;
68300;SDS011;55146;47.468;18.806;2023-07-20T02:18:06;10.38;;;4.60;;
68300;SDS011;55146;47.468;18.806;2023-07-20T02:20:31;7.73;;;4.43;;
68300;SDS011;55146;47.468;18.806;2023-07-20T02:22:56;10.53;;;4.50;;
68300;SDS011;55146;47.468;18.806;2023-07-20T02:25:22;7.07;;;4.00;;
68300;SDS011;55146;47.468;18.806;2023-07-20T02:27:47;10.07;;;4.27;;
68300;SDS011;55146;47.468;18.806;2023-07-20T02:30:12;9.23;;;5.13;;
68300;SDS011;55146;47.468;18.806;2023-07-20T02:32:38;11.12;;;4.70;;
68300;SDS011;55146;47.468;18.806;2023-07-20T02:35:04;10.65;;;4.80;;
68300;SDS011;55146;47.468;18.806;2023-07-20T02:37:31;8.00;;;4.10;;
68300;SDS011;55146;47.468;18.806;2023-07-20T02:39:56;9.35;;;3.92;;
68300;SDS011;55146;47.468;18.806;2023-07-20T02:42:22;9.33;;;4.37;;
68300;SDS011;55146;47.468;18.806;2023-07-20T02:44:49;12.07;;;4.05;;
68300;SDS011;55146;47.468;18.806;2023-07-20T02:47:14;11.05;;;4.70;;
68300;SDS011;55146;47.468;18.806;2023-07-20T02:49:39;9.73;;;4.17;;
68300;SDS011;55146;47.468;18.806;2023-07-20T02:52:05;9.70;;;4.13;;
68300;SDS011;55146;47.468;18.806;2023-07-20T02:54:30;8.43;;;4.93;;
68300;SDS011;55146;47.468;18.806;2023-07-20T02:56:56;9.40;;;4.10;;
68300;SDS011;55146;47.468;18.806;2023-07-20T02:59:21;9.30;;;4.43;;
68300;SDS011;55146;47.468;18.806;2023-07-20T03:01:47;10.07;;;4.23;;
68300;SDS011;55146;47.468;18.806;2023-07-20T03:04:12;5.97;;;3.90;;
68300;SDS011;55146;47.468;18.806;2023-07-20T03:06:38;7.65;;;4.50;;
68300;SDS011;55146;47.468;18.806;2023-07-20T03:09:03;7.93;;;3.80;;
68300;SDS011;55146;47.468;18.806;2023-07-20T03:11:29;6.75;;;4.22;;
68300;SDS011;55146;47.468;18.806;2023-07-20T03:13:55;9.77;;;4.13;;
68300;SDS011;55146;47.468;18.806;2023-07-20T03:16:21;8.50;;;3.90;;
68300;SDS011;55146;47.468;18.806;2023-07-20T03:18:48;9.60;;;4.12;;
68300;SDS011;55146;47.468;18.806;2023-07-20T03:21:13;8.80;;;4.00;;
68300;SDS011;55146;47.468;18.806;2023-07-20T03:23:39;7.97;;;3.58;;
68300;SDS011;55146;47.468;18.806;2023-07-20T03:26:06;9.17;;;4.83;;
68300;SDS011;55146;47.468;18.806;2023-07-20T03:28:33;11.27;;;4.07;;
68300;SDS011;55146;47.468;18.806;2023-07-20T03:30:59;7.60;;;3.47;;
68300;SDS011;55146;47.468;18.806;2023-07-20T03:33:25;7.07;;;3.73;;
68300;SDS011;55146;47.468;18.806;2023-07-20T03:35:52;6.65;;;3.20;;
68300;SDS011;55146;47.468;18.806;2023-07-20T03:38:18;8.93;;;4.23;;
68300;SDS011;55146;47.468;18.806;2023-07-20T03:40:53;6.15;;;3.65;;
68300;SDS011;55146;47.468;18.806;2023-07-20T03:43:20;9.20;;;4.40;;
68300;SDS011;55146;47.468;18.806;2023-07-20T03:45:45;7.28;;;4.50;;
68300;SDS011;55146;47.468;18.806;2023-07-20T03:48:12;8.43;;;4.43;;
68300;SDS011;55146;47.468;18.806;2023-07-20T03:50:38;8.98;;;4.03;;
68300;SDS011;55146;47.468;18.806;2023-07-20T03:53:04;11.53;;;4.17;;
68300;SDS011;55146;47.468;18.806;2023-07-20T03:55:29;7.77;;;4.10;;
68300;SDS011;55146;47.468;18.806;2023-07-20T03:57:55;8.60;;;3.70;;
68300;SDS011;55146;47.468;18.806;2023-07-20T04:00:20;7.73;;;3.90;;
68300;SDS011;55146;47.468;18.806;2023-07-20T04:02:46;6.53;;;4.00;;
68300;SDS011;55146;47.468;18.806;2023-07-20T04:05:11;9.03;;;4.17;;
68300;SDS011;55146;47.468;18.806;2023-07-20T04:07:37;8.65;;;3.80;;
68300;SDS011;55146;47.468;18.806;2023-07-20T04:10:02;15.77;;;4.93;;
68300;SDS011;55146;47.468;18.806;2023-07-20T04:12:27;7.93;;;4.40;;
68300;SDS011;55146;47.468;18.806;2023-07-20T04:14:53;6.50;;;4.53;;
68300;SDS011;55146;47.468;18.806;2023-07-20T04:17:18;9.15;;;3.80;;
68300;SDS011;55146;47.468;18.806;2023-07-20T04:19:44;9.63;;;4.70;;
68300;SDS011;55146;47.468;18.806;2023-07-20T04:22:09;6.80;;;3.77;;
68300;SDS011;55146;47.468;18.806;2023-07-20T04:24:35;13.40;;;4.10;;
68300;SDS011;55146;47.468;18.806;2023-07-20T04:27:00;8.23;;;4.80;;
68300;SDS011;55146;47.468;18.806;2023-07-20T04:29:25;7.67;;;4.70;;
68300;SDS011;55146;47.468;18.806;2023-07-20T04:31:51;7.73;;;3.97;;
68300;SDS011;55146;47.468;18.806;2023-07-20T04:34:16;9.87;;;3.87;;
68300;SDS011;55146;47.468;18.806;2023-07-20T04:36:41;8.30;;;3.50;;
68300;SDS011;55146;47.468;18.806;2023-07-20T04:39:07;7.53;;;3.67;;
68300;SDS011;55146;47.468;18.806;2023-07-20T04:41:33;9.15;;;4.30;;
68300;SDS011;55146;47.468;18.806;2023-07-20T04:43:59;6.43;;;4.07;;
68300;SDS011;55146;47.468;18.806;2023-07-20T04:46:24;8.70;;;3.40;;
68300;SDS011;55146;47.468;18.806;2023-07-20T04:48:49;7.67;;;3.87;;
68300;SDS011;55146;47.468;18.806;2023-07-20T04:51:15;9.37;;;3.70;;
68300;SDS011;55146;47.468;18.806;2023-07-20T04:53:42;17.23;;;4.32;;
68300;SDS011;55146;47.468;18.806;2023-07-20T04:56:07;17.43;;;4.43;;
68300;SDS011;55146;47.468;18.806;2023-07-20T04:58:33;9.87;;;4.00;;
68300;SDS011;55146;47.468;18.806;2023-07-20T05:00:58;9.93;;;3.58;;
68300;SDS011;55146;47.468;18.806;2023-07-20T05:03:23;10.03;;;3.70;;
68300;SDS011;55146;47.468;18.806;2023-07-20T05:05:49;9.50;;;4.20;;
68300;SDS011;55146;47.468;18.806;2023-07-20T05:08:15;14.07;;;4.60;;
68300;SDS011;55146;47.468;18.806;2023-07-20T05:10:41;9.77;;;4.53;;
68300;SDS011;55146;47.468;18.806;2023-07-20T05:13:06;14.80;;;5.53;;
68300;SDS011;55146;47.468;18.806;2023-07-20T05:15:34;10.03;;;3.90;;
68300;SDS011;55146;47.468;18.806;2023-07-20T05:18:00;12.80;;;6.07;;
68300;SDS011;55146;47.468;18.806;2023-07-20T05:20:26;16.45;;;6.40;;
68300;SDS011;55146;47.468;18.806;2023-07-20T05:22:52;22.50;;;8.48;;
68300;SDS011;55146;47.468;18.806;2023-07-20T05:25:17;15.20;;;7.20;;
68300;SDS011;55146;47.468;18.806;2023-07-20T05:27:43;27.37;;;11.70;;
68300;SDS011;55146;47.468;18.806;2023-07-20T05:30:09;18.50;;;6.80;;
68300;SDS011;55146;47.468;18.806;2023-07-20T05:32:35;22.50;;;6.97;;
68300;SDS011;55146;47.468;18.806;2023-07-20T05:35:00;16.17;;;6.53;;
68300;SDS011;55146;47.468;18.806;2023-07-20T05:37:26;11.10;;;4.90;;
68300;SDS011;55146;47.468;18.806;2023-07-20T05:39:51;24.53;;;9.90;;
68300;SDS011;55146;47.468;18.806;2023-07-20T05:42:16;13.05;;;5.28;;
68300;SDS011;55146;47.468;18.806;2023-07-20T05:44:42;10.00;;;4.60;;
68300;SDS011;55146;47.468;18.806;2023-07-20T05:47:07;8.10;;;4.73;;
68300;SDS011;55146;47.468;18.806;2023-07-20T05:49:34;14.93;;;6.63;;
68300;SDS011;55146;47.468;18.806;2023-07-20T05:51:59;12.13;;;5.60;;
68300;SDS011;55146;47.468;18.806;2023-07-20T05:54:26;9.25;;;4.40;;
68300;SDS011;55146;47.468;18.806;2023-07-20T05:56:52;10.32;;;4.30;;
68300;SDS011;55146;47.468;18.806;2023-07-20T05:59:17;7.23;;;4.17;;
68300;SDS011;55146;47.468;18.806;2023-07-20T06:01:44;9.10;;;4.55;;
68300;SDS011;55146;47.468;18.806;2023-07-20T06:04:09;10.73;;;4.70;;
68300;SDS011;55146;47.468;18.806;2023-07-20T06:06:35;8.83;;;4.40;;
68300;SDS011;55146;47.468;18.806;2023-07-20T06:09:00;7.20;;;4.40;;
68300;SDS011;55146;47.468;18.806;2023-07-20T06:11:30;11.10;;;4.73;;
68300;SDS011;55146;47.468;18.806;2023-07-20T06:13:56;9.82;;;4.05;;
68300;SDS011;55146;47.468;18.806;2023-07-20T06:16:22;9.02;;;5.62;;
68300;SDS011;55146;47.468;18.806;2023-07-20T06:18:47;8.07;;;4.50;;
68300;SDS011;55146;47.468;18.806;2023-07-20T06:21:13;11.00;;;5.00;;
68300;SDS011;55146;47.468;18.806;2023-07-20T06:23:38;11.87;;;5.67;;
68300;SDS011;55146;47.468;18.806;2023-07-20T06:26:05;18.13;;;5.10;;
68300;SDS011;55146;47.468;18.806;2023-07-20T06:28:31;11.25;;;4.53;;
68300;SDS011;55146;47.468;18.806;2023-07-20T06:31:00;9.57;;;4.27;;
68300;SDS011;55146;47.468;18.806;2023-07-20T06:33:26;9.38;;;4.65;;
68300;SDS011;55146;47.468;18.806;2023-07-20T06:35:51;8.93;;;4.70;;
68300;SDS011;55146;47.468;18.806;2023-07-20T06:38:18;9.38;;;4.80;;
68300;SDS011;55146;47.468;18.806;2023-07-20T06:40:43;11.97;;;3.90;;
68300;SDS011;55146;47.468;18.806;2023-07-20T06:43:08;13.30;;;4.50;;
68300;SDS011;55146;47.468;18.806;2023-07-20T06:45:34;11.50;;;4.67;;
68300;SDS011;55146;47.468;18.806;2023-07-20T06:47:59;7.37;;;4.80;;
68300;SDS011;55146;47.468;18.806;2023-07-20T06:50:25;12.10;;;5.50;;
68300;SDS011;55146;47.468;18.806;2023-07-20T06:52:50;9.63;;;3.70;;
68300;SDS011;55146;47.468;18.806;2023-07-20T06:55:15;10.00;;;4.20;;
68300;SDS011;55146;47.468;18.806;2023-07-20T06:57:41;8.07;;;4.72;;
68300;SDS011;55146;47.468;18.806;2023-07-20T07:00:06;7.47;;;4.20;;
68300;SDS011;55146;47.468;18.806;2023-07-20T07:02:32;6.57;;;4.03;;
68300;SDS011;55146;47.468;18.806;2023-07-20T07:04:57;8.70;;;4.50;;
68300;SDS011;55146;47.468;18.806;2023-07-20T07:07:23;7.20;;;4.00;;
68300;SDS011;55146;47.468;18.806;2023-07-20T07:09:48;7.40;;;4.50;;
68300;SDS011;55146;47.468;18.806;2023-07-20T07:12:13;8.00;;;3.70;;
68300;SDS011;55146;47.468;18.806;2023-07-20T07:14:39;6.57;;;3.27;;
68300;SDS011;55146;47.468;18.806;2023-07-20T07:17:04;9.30;;;4.15;;
68300;SDS011;55146;47.468;18.806;2023-07-20T07:19:30;8.70;;;4.10;;
68300;SDS011;55146;47.468;18.806;2023-07-20T07:21:55;9.57;;;4.17;;
68300;SDS011;55146;47.468;18.806;2023-07-20T07:24:21;8.27;;;3.80;;
68300;SDS011;55146;47.468;18.806;2023-07-20T07:26:46;9.53;;;3.93;;
68300;SDS011;55146;47.468;18.806;2023-07-20T07:29:11;7.40;;;3.87;;
68300;SDS011;55146;47.468;18.806;2023-07-20T07:31:37;11.30;;;3.63;;
68300;SDS011;55146;47.468;18.806;2023-07-20T07:34:03;10.07;;;4.05;;
68300;SDS011;55146;47.468;18.806;2023-07-20T07:36:29;7.03;;;3.60;;
68300;SDS011;55146;47.468;18.806;2023-07-20T07:38:55;10.00;;;4.20;;
68300;SDS011;55146;47.468;18.806;2023-07-20T07:41:20;8.73;;;4.20;;
68300;SDS011;55146;47.468;18.806;2023-07-20T07:43:46;9.53;;;3.33;;
68300;SDS011;55146;47.468;18.806;2023-07-20T07:46:11;7.00;;;3.92;;
68300;SDS011;55146;47.468;18.806;2023-07-20T07:48:36;6.83;;;3.40;;
68300;SDS011;55146;47.468;18.806;2023-07-20T07:51:02;6.47;;;3.63;;
68300;SDS011;55146;47.468;18.806;2023-07-20T07:53:27;10.67;;;3.80;;
68300;SDS011;55146;47.468;18.806;2023-07-20T07:55:53;9.93;;;3.53;;
68300;SDS011;55146;47.468;18.806;2023-07-20T07:58:18;7.50;;;3.25;;
68300;SDS011;55146;47.468;18.806;2023-07-20T08:00:43;7.07;;;2.87;;
68300;SDS011;55146;47.468;18.806;2023-07-20T08:03:09;5.40;;;3.33;;
68300;SDS011;55146;47.468;18.806;2023-07-20T08:05:35;10.23;;;3.58;;
68300;SDS011;55146;47.468;18.806;2023-07-20T08:08:01;7.20;;;3.30;;
68300;SDS011;55146;47.468;18.806;2023-07-20T08:10:28;8.60;;;3.35;;
68300;SDS011;55146;47.468;18.806;2023-07-20T08:12:54;6.07;;;4.03;;
68300;SDS011;55146;47.468;18.806;2023-07-20T08:15:19;7.67;;;3.27;;
68300;SDS011;55146;47.468;18.806;2023-07-20T08:17:45;7.67;;;3.30;;
68300;SDS011;55146;47.468;18.806;2023-07-20T08:20:10;12.63;;;3.67;;
68300;SDS011;55146;47.468;18.806;2023-07-20T08:22:38;10.30;;;3.45;;
68300;SDS011;55146;47.468;18.806;2023-07-20T08:25:04;7.78;;;3.58;;
68300;SDS011;55146;47.468;18.806;2023-07-20T08:27:34;7.53;;;3.17;;
68300;SDS011;55146;47.468;18.806;2023-07-20T08:30:00;10.25;;;3.62;;
68300;SDS011;55146;47.468;18.806;2023-07-20T08:32:26;9.40;;;3.47;;
68300;SDS011;55146;47.468;18.806;2023-07-20T08:34:51;12.37;;;3.12;;
68300;SDS011;55146;47.468;18.806;2023-07-20T08:37:17;9.02;;;3.22;;
68300;SDS011;55146;47.468;18.806;2023-07-20T08:39:42;10.03;;;3.93;;
68300;SDS011;55146;47.468;18.806;2023-07-20T08:42:08;9.53;;;3.40;;
68300;SDS011;55146;47.468;18.806;2023-07-20T08:44:35;9.20;;;3.75;;
68300;SDS011;55146;47.468;18.806;2023-07-20T08:47:01;7.13;;;3.17;;
68300;SDS011;55146;47.468;18.806;2023-07-20T08:49:33;6.65;;;3.08;;
68300;SDS011;55146;47.468;18.806;2023-07-20T08:51:59;9.95;;;3.20;;
68300;SDS011;55146;47.468;18.806;2023-07-20T08:54:27;6.60;;;3.20;;
68300;SDS011;55146;47.468;18.806;2023-07-20T08:56:57;8.23;;;3.00;;
68300;SDS011;55146;47.468;18.806;2023-07-20T08:59:27;11.48;;;3.12;;
68300;SDS011;55146;47.468;18.806;2023-07-20T09:01:53;5.57;;;3.10;;
68300;SDS011;55146;47.468;18.806;2023-07-20T09:04:21;9.15;;;3.10;;
68300;SDS011;55146;47.468;18.806;2023-07-20T09:06:48;7.80;;;3.33;;
68300;SDS011;55146;47.468;18.806;2023-07-20T09:09:15;5.40;;;3.55;;
68300;SDS011;55146;47.468;18.806;2023-07-20T09:11:41;7.53;;;3.90;;
68300;SDS011;55146;47.468;18.806;2023-07-20T09:14:07;6.68;;;3.50;;
68300;SDS011;55146;47.468;18.806;2023-07-20T09:16:55;10.02;;;3.50;;
68300;SDS011;55146;47.468;18.806;2023-07-20T09:19:21;7.50;;;3.13;;
68300;SDS011;55146;47.468;18.806;2023-07-20T09:21:50;12.32;;;4.12;;
68300;SDS011;55146;47.468;18.806;2023-07-20T09:24:20;9.03;;;3.10;;
68300;SDS011;55146;47.468;18.806;2023-07-20T09:26:46;9.35;;;3.12;;
68300;SDS011;55146;47.468;18.806;2023-07-20T09:29:18;7.97;;;3.70;;
68300;SDS011;55146;47.468;18.806;2023-07-20T09:31:50;10.85;;;2.97;;
68300;SDS011;55146;47.468;18.806;2023-07-20T09:34:24;11.77;;;3.72;;
68300;SDS011;55146;47.468;18.806;2023-07-20T09:36:49;9.07;;;3.73;;
68300;SDS011;55146;47.468;18.806;2023-07-20T09:39:16;5.28;;;2.67;;
68300;SDS011;55146;47.468;18.806;2023-07-20T09:41:42;9.40;;;2.87;;
68300;SDS011;55146;47.468;18.806;2023-07-20T09:44:07;13.52;;;2.90;;
68300;SDS011;55146;47.468;18.806;2023-07-20T09:46:44;5.93;;;2.80;;
68300;SDS011;55146;47.468;18.806;2023-07-20T09:49:11;6.10;;;3.12;;
68300;SDS011;55146;47.468;18.806;2023-07-20T09:51:37;9.68;;;3.50;;
68300;SDS011;55146;47.468;18.806;2023-07-20T09:54:03;5.37;;;2.78;;
68300;SDS011;55146;47.468;18.806;2023-07-20T09:56:29;11.07;;;3.45;;
68300;SDS011;55146;47.468;18.806;2023-07-20T09:58:56;10.77;;;2.83;;
68300;SDS011;55146;47.468;18.806;2023-07-20T10:01:22;8.48;;;3.10;;
68300;SDS011;55146;47.468;18.806;2023-07-20T10:03:48;11.10;;;4.15;;
68300;SDS011;55146;47.468;18.806;2023-07-20T10:06:20;12.68;;;3.35;;
68300;SDS011;55146;47.468;18.806;2023-07-20T10:08:49;8.60;;;3.72;;
68300;SDS011;55146;47.468;18.806;2023-07-20T10:11:18;11.30;;;3.60;;
68300;SDS011;55146;47.468;18.806;2023-07-20T10:13:44;8.65;;;3.20;;
68300;SDS011;55146;47.468;18.806;2023-07-20T10:16:12;6.82;;;3.95;;
68300;SDS011;55146;47.468;18.806;2023-07-20T10:19:01;9.63;;;3.05;;
68300;SDS011;55146;47.468;18.806;2023-07-20T10:22:04;6.82;;;3.37;;
68300;SDS011;55146;47.468;18.806;2023-07-20T10:24:36;5.57;;;3.10;;
68300;SDS011;55146;47.468;18.806;2023-07-20T10:27:03;6.53;;;2.90;;
68300;SDS011;55146;47.468;18.806;2023-07-20T10:29:30;6.87;;;3.28;;
68300;SDS011;55146;47.468;18.806;2023-07-20T10:31:56;8.38;;;2.90;;
68300;SDS011;55146;47.468;18.806;2023-07-20T10:34:22;8.18;;;3.40;;
68300;SDS011;55146;47.468;18.806;2023-07-20T10:36:48;7.63;;;3.33;;
68300;SDS011;55146;47.468;18.806;2023-07-20T10:39:32;5.45;;;3.45;;
68300;SDS011;55146;47.468;18.806;2023-07-20T10:44:28;8.52;;;3.05;;
68300;SDS011;55146;47.468;18.806;2023-07-20T10:47:02;7.30;;;2.95;;
68300;SDS011;55146;47.468;18.806;2023-07-20T10:49:33;11.17;;;3.23;;
68300;SDS011;55146;47.468;18.806;2023-07-20T10:52:00;4.30;;;2.45;;
68300;SDS011;55146;47.468;18.806;2023-07-20T10:56:56;9.33;;;3.57;;
68300;SDS011;55146;47.468;18.806;2023-07-20T11:01:56;5.45;;;3.15;;
68300;SDS011;55146;47.468;18.806;2023-07-20T11:04:46;6.43;;;3.10;;
68300;SDS011;55146;47.468;18.806;2023-07-20T11:07:17;7.20;;;2.62;;
68300;SDS011;55146;47.468;18.806;2023-07-20T11:10:14;6.80;;;3.83;;
68300;SDS011;55146;47.468;18.806;2023-07-20T11:12:40;6.60;;;2.62;;
68300;SDS011;55146;47.468;18.806;2023-07-20T11:15:06;5.77;;;3.30;;
68300;SDS011;55146;47.468;18.806;2023-07-20T11:17:32;6.78;;;3.40;;
68300;SDS011;55146;47.468;18.806;2023-07-20T11:20:01;5.03;;;3.10;;
68300;SDS011;55146;47.468;18.806;2023-07-20T11:22:27;7.12;;;3.05;;
68300;SDS011;55146;47.468;18.806;2023-07-20T11:24:55;7.47;;;2.60;;
68300;SDS011;55146;47.468;18.806;2023-07-20T11:27:21;8.95;;;3.22;;
68300;SDS011;55146;47.468;18.806;2023-07-20T11:29:49;8.23;;;3.70;;
68300;SDS011;55146;47.468;18.806;2023-07-20T11:32:21;8.63;;;4.32;;
68300;SDS011;55146;47.468;18.806;2023-07-20T11:34:48;8.13;;;3.12;;
68300;SDS011;55146;47.468;18.806;2023-07-20T11:37:13;5.43;;;3.53;;
68300;SDS011;55146;47.468;18.806;2023-07-20T11:39:38;7.23;;;3.43;;
68300;SDS011;55146;47.468;18.806;2023-07-20T11:42:04;5.40;;;3.33;;
68300;SDS011;55146;47.468;18.806;2023-07-20T11:44:30;7.57;;;3.72;;
68300;SDS011;55146;47.468;18.806;2023-07-20T11:47:09;6.33;;;4.00;;
68300;SDS011;55146;47.468;18.806;2023-07-20T11:49:36;8.40;;;4.30;;
68300;SDS011;55146;47.468;18.806;2023-07-20T11:52:05;8.82;;;3.78;;
68300;SDS011;55146;47.468;18.806;2023-07-20T11:54:32;6.10;;;3.37;;
68300;SDS011;55146;47.468;18.806;2023-07-20T11:57:00;8.33;;;3.90;;
68300;SDS011;55146;47.468;18.806;2023-07-20T11:59:26;6.93;;;3.17;;
68300;SDS011;55146;47.468;18.806;2023-07-20T12:01:53;6.43;;;3.12;;
68300;SDS011;55146;47.468;18.806;2023-07-20T12:04:19;7.27;;;2.90;;
68300;SDS011;55146;47.468;18.806;2023-07-20T12:06:45;6.97;;;3.28;;
68300;SDS011;55146;47.468;18.806;2023-07-20T12:09:13;10.93;;;3.27;;
68300;SDS011;55146;47.468;18.806;2023-07-20T12:11:42;5.32;;;2.78;;
68300;SDS011;55146;47.468;18.806;2023-07-20T12:14:09;6.80;;;3.55;;
68300;SDS011;55146;47.468;18.806;2023-07-20T12:16:36;5.45;;;2.45;;
68300;SDS011;55146;47.468;18.806;2023-07-20T12:19:06;6.53;;;3.28;;
68300;SDS011;55146;47.468;18.806;2023-07-20T12:21:34;6.27;;;2.90;;
68300;SDS011;55146;47.468;18.806;2023-07-20T12:24:02;5.82;;;2.80;;
68300;SDS011;55146;47.468;18.806;2023-07-20T12:26:32;8.15;;;2.95;;
68300;SDS011;55146;47.468;18.806;2023-07-20T12:28:58;7.60;;;2.58;;
68300;SDS011;55146;47.468;18.806;2023-07-20T12:31:24;6.33;;;3.43;;
68300;SDS011;55146;47.468;18.806;2023-07-20T12:33:51;6.37;;;2.83;;
68300;SDS011;55146;47.468;18.806;2023-07-20T12:36:17;6.65;;;3.80;;
68300;SDS011;55146;47.468;18.806;2023-07-20T12:38:43;7.32;;;3.33;;
68300;SDS011;55146;47.468;18.806;2023-07-20T12:41:10;6.53;;;3.77;;
68300;SDS011;55146;47.468;18.806;2023-07-20T12:43:39;7.12;;;3.08;;
68300;SDS011;55146;47.468;18.806;2023-07-20T12:46:09;6.95;;;3.33;;
68300;SDS011;55146;47.468;18.806;2023-07-20T12:48:35;13.23;;;3.67;;
68300;SDS011;55146;47.468;18.806;2023-07-20T12:51:05;6.50;;;2.47;;
68300;SDS011;55146;47.468;18.806;2023-07-20T12:53:32;4.60;;;1.93;;
68300;SDS011;55146;47.468;18.806;2023-07-20T12:56:00;5.57;;;2.62;;
68300;SDS011;55146;47.468;18.806;2023-07-20T12:58:26;5.80;;;2.47;;
68300;SDS011;55146;47.468;18.806;2023-07-20T13:00:52;7.67;;;3.57;;
68300;SDS011;55146;47.468;18.806;2023-07-20T13:03:18;11.38;;;2.67;;
68300;SDS011;55146;47.468;18.806;2023-07-20T13:05:44;6.07;;;2.58;;
68300;SDS011;55146;47.468;18.806;2023-07-20T13:08:10;9.07;;;2.45;;
68300;SDS011;55146;47.468;18.806;2023-07-20T13:10:36;4.37;;;2.50;;
68300;SDS011;55146;47.468;18.806;2023-07-20T13:13:03;6.80;;;2.35;;
68300;SDS011;55146;47.468;18.806;2023-07-20T13:15:29;5.37;;;2.72;;
68300;SDS011;55146;47.468;18.806;2023-07-20T13:17:57;7.90;;;2.72;;
68300;SDS011;55146;47.468;18.806;2023-07-20T13:20:22;9.20;;;2.40;;
68300;SDS011;55146;47.468;18.806;2023-07-20T13:22:48;7.70;;;3.13;;
68300;SDS011;55146;47.468;18.806;2023-07-20T13:25:14;8.18;;;2.67;;
68300;SDS011;55146;47.468;18.806;2023-07-20T13:27:39;5.90;;;3.27;;
68300;SDS011;55146;47.468;18.806;2023-07-20T13:30:04;5.07;;;2.92;;
68300;SDS011;55146;47.468;18.806;2023-07-20T13:32:32;6.23;;;3.37;;
68300;SDS011;55146;47.468;18.806;2023-07-20T13:34:58;8.05;;;2.42;;
68300;SDS011;55146;47.468;18.806;2023-07-20T13:37:24;9.70;;;3.33;;
68300;SDS011;55146;47.468;18.806;2023-07-20T13:39:49;4.70;;;2.50;;
68300;SDS011;55146;47.468;18.806;2023-07-20T13:42:15;7.30;;;2.22;;
68300;SDS011;55146;47.468;18.806;2023-07-20T13:44:41;5.87;;;3.23;;
68300;SDS011;55146;47.468;18.806;2023-07-20T13:47:06;7.07;;;3.10;;
68300;SDS011;55146;47.468;18.806;2023-07-20T13:49:31;7.10;;;2.93;;
68300;SDS011;55146;47.468;18.806;2023-07-20T13:51:57;8.90;;;3.57;;
68300;SDS011;55146;47.468;18.806;2023-07-20T13:54:23;15.25;;;2.90;;
68300;SDS011;55146;47.468;18.806;2023-07-20T13:56:49;4.97;;;2.28;;
68300;SDS011;55146;47.468;18.806;2023-07-20T13:59:14;5.43;;;2.33;;
68300;SDS011;55146;47.468;18.806;2023-07-20T14:01:39;5.77;;;2.30;;
68300;SDS011;55146;47.468;18.806;2023-07-20T14:04:05;7.50;;;2.93;;
68300;SDS011;55146;47.468;18.806;2023-07-20T14:06:31;6.43;;;2.50;;
68300;SDS011;55146;47.468;18.806;2023-07-20T14:09:00;5.90;;;3.33;;
68300;SDS011;55146;47.468;18.806;2023-07-20T14:11:26;5.07;;;2.62;;
68300;SDS011;55146;47.468;18.806;2023-07-20T14:13:52;7.10;;;3.20;;
68300;SDS011;55146;47.468;18.806;2023-07-20T14:16:20;5.97;;;3.20;;
68300;SDS011;55146;47.468;18.806;2023-07-20T14:18:46;6.50;;;2.62;;
68300;SDS011;55146;47.468;18.806;2023-07-20T14:21:13;6.07;;;2.87;;
68300;SDS011;55146;47.468;18.806;2023-07-20T14:23:39;7.45;;;2.65;;
68300;SDS011;55146;47.468;18.806;2023-07-20T14:26:04;8.57;;;3.00;;
68300;SDS011;55146;47.468;18.806;2023-07-20T14:28:30;11.25;;;3.62;;
68300;SDS011;55146;47.468;18.806;2023-07-20T14:30:57;5.83;;;2.90;;
68300;SDS011;55146;47.468;18.806;2023-07-20T14:33:22;5.95;;;3.47;;
68300;SDS011;55146;47.468;18.806;2023-07-20T14:35:48;6.40;;;2.63;;
68300;SDS011;55146;47.468;18.806;2023-07-20T14:38:13;5.27;;;2.90;;
68300;SDS011;55146;47.468;18.806;2023-07-20T14:40:38;5.63;;;2.80;;